sensor_id;sensor_type;location;lat;lon;timestamp;pressure;altitude;pressure_sealevel;temperature;humidity
55217;BME280;41086;46.736;15.666;2023-03-01T00:48:34;99426.50;;;0.46;100.00
55217;BME280;41086;46.736;15.666;2023-03-01T00:51:10;99412.66;;;0.40;100.00
55217;BME280;41086;46.736;15.666;2023-03-01T00:53:37;99410.06;;;0.40;100.00
55217;BME280;41086;46.736;15.666;2023-03-01T00:56:05;99410.06;;;0.40;100.00
55217;BME280;41086;46.736;15.666;2023-03-01T00:58:34;99391.88;;;0.34;100.00
55217;BME280;41086;46.736;15.666;2023-03-01T01:01:06;99397.16;;;0.31;100.00
55217;BME280;41086;46.736;15.666;2023-03-01T01:03:33;99400.56;;;0.35;100.00
55217;BME280;41086;46.736;15.666;2023-03-01T01:06:00;99387.53;;;0.36;100.00
55217;BME280;41086;46.736;15.666;2023-03-01T01:08:35;99384.06;;;0.34;100.00
55217;BME280;41086;46.736;15.666;2023-03-01T01:11:02;99382.31;;;0.35;100.00
55217;BME280;41086;46.736;15.666;2023-03-01T01:13:29;99379.69;;;0.35;100.00
55217;BME280;41086;46.736;15.666;2023-03-01T01:16:00;99376.19;;;0.37;100.00
55217;BME280;41086;46.736;15.666;2023-03-01T01:18:27;99363.19;;;0.34;100.00
55217;BME280;41086;46.736;15.666;2023-03-01T01:20:54;99364.06;;;0.35;100.00
55217;BME280;41086;46.736;15.666;2023-03-01T01:23:20;99374.47;;;0.36;100.00
55217;BME280;41086;46.736;15.666;2023-03-01T01:25:47;99355.44;;;0.31;100.00
55217;BME280;41086;46.736;15.666;2023-03-01T01:28:14;99366.59;;;0.41;100.00
55217;BME280;41086;46.736;15.666;2023-03-01T01:30:42;99368.31;;;0.40;100.00
55217;BME280;41086;46.736;15.666;2023-03-01T01:33:08;99354.53;;;0.32;100.00
55217;BME280;41086;46.736;15.666;2023-03-01T01:35:35;99359.69;;;0.38;100.00
55217;BME280;41086;46.736;15.666;2023-03-01T01:38:02;99354.53;;;0.35;100.00
55217;BME280;41086;46.736;15.666;2023-03-01T01:40:29;99352.81;;;0.31;100.00
55217;BME280;41086;46.736;15.666;2023-03-01T01:42:56;99347.66;;;0.28;100.00
55217;BME280;41086;46.736;15.666;2023-03-01T01:45:33;99343.34;;;0.26;100.00
55217;BME280;41086;46.736;15.666;2023-03-01T01:48:05;99343.38;;;0.22;100.00
55217;BME280;41086;46.736;15.666;2023-03-01T01:50:33;99341.63;;;0.21;100.00
55217;BME280;41086;46.736;15.666;2023-03-01T01:53:09;99348.59;;;0.21;100.00
55217;BME280;41086;46.736;15.666;2023-03-01T01:55:49;99339.91;;;0.22;100.00
55217;BME280;41086;46.736;15.666;2023-03-01T01:58:19;99344.25;;;0.21;100.00
55217;BME280;41086;46.736;15.666;2023-03-01T02:00:48;99340.78;;;0.21;100.00
55217;BME280;41086;46.736;15.666;2023-03-01T02:03:35;99339.03;;;0.21;100.00
55217;BME280;41086;46.736;15.666;2023-03-01T02:06:28;99329.50;;;0.20;100.00
55217;BME280;41086;46.736;15.666;2023-03-01T02:09:07;99327.75;;;0.21;100.00
55217;BME280;41086;46.736;15.666;2023-03-01T02:11:36;99307.06;;;0.09;100.00
55217;BME280;41086;46.736;15.666;2023-03-01T02:14:04;99322.63;;;0.16;100.00
55217;BME280;41086;46.736;15.666;2023-03-01T02:16:31;99326.97;;;0.13;100.00
55217;BME280;41086;46.736;15.666;2023-03-01T02:18:58;99330.44;;;0.15;100.00
55217;BME280;41086;46.736;15.666;2023-03-01T02:23:56;99319.13;;;0.16;100.00
55217;BME280;41086;46.736;15.666;2023-03-01T02:26:34;99305.28;;;0.12;100.00
55217;BME280;41086;46.736;15.666;2023-03-01T02:29:03;99307.06;;;0.09;100.00
55217;BME280;41086;46.736;15.666;2023-03-01T02:31:32;99307.94;;;0.08;100.00
55217;BME280;41086;46.736;15.666;2023-03-01T02:34:13;99318.34;;;0.09;100.00
55217;BME280;41086;46.736;15.666;2023-03-01T02:36:48;99314.03;;;0.08;100.00
55217;BME280;41086;46.736;15.666;2023-03-01T02:39:44;99308.78;;;0.10;100.00
55217;BME280;41086;46.736;15.666;2023-03-01T02:42:16;99320.00;;;0.16;100.00
55217;BME280;41086;46.736;15.666;2023-03-01T02:44:49;99314.75;;;0.19;100.00
55217;BME280;41086;46.736;15.666;2023-03-01T02:47:15;99309.47;;;0.22;100.00
55217;BME280;41086;46.736;15.666;2023-03-01T02:49:42;99312.91;;;0.26;100.00
55217;BME280;41086;46.736;15.666;2023-03-01T02:55:08;99316.38;;;0.27;100.00
55217;BME280;41086;46.736;15.666;2023-03-01T02:57:39;99323.25;;;0.32;100.00
55217;BME280;41086;46.736;15.666;2023-03-01T03:00:09;99316.25;;;0.36;100.00
55217;BME280;41086;46.736;15.666;2023-03-01T03:02:50;99323.19;;;0.38;100.00
55217;BME280;41086;46.736;15.666;2023-03-01T03:05:20;99315.38;;;0.37;100.00
55217;BME280;41086;46.736;15.666;2023-03-01T03:07:51;99322.28;;;0.39;100.00
55217;BME280;41086;46.736;15.666;2023-03-01T03:10:27;99311.84;;;0.39;100.00
55217;BME280;41086;46.736;15.666;2023-03-01T03:12:57;99329.94;;;0.50;100.00
55217;BME280;41086;46.736;15.666;2023-03-01T03:15:26;99325.66;;;0.46;100.00
55217;BME280;41086;46.736;15.666;2023-03-01T03:17:55;99321.31;;;0.47;100.00
55217;BME280;41086;46.736;15.666;2023-03-01T03:20:25;99323.03;;;0.46;100.00
55217;BME280;41086;46.736;15.666;2023-03-01T03:22:54;99329.19;;;0.43;100.00
55217;BME280;41086;46.736;15.666;2023-03-01T03:25:22;99309.31;;;0.35;100.00
55217;BME280;41086;46.736;15.666;2023-03-01T03:27:51;99317.06;;;0.38;100.00
55217;BME280;41086;46.736;15.666;2023-03-01T03:30:30;99312.84;;;0.31;100.00
55217;BME280;41086;46.736;15.666;2023-03-01T03:32:59;99310.34;;;0.21;100.00
55217;BME280;41086;46.736;15.666;2023-03-01T03:35:37;99305.22;;;0.17;100.00
55217;BME280;41086;46.736;15.666;2023-03-01T03:38:07;99301.81;;;0.12;100.00
55217;BME280;41086;46.736;15.666;2023-03-01T03:40:40;99300.88;;;0.17;100.00
55217;BME280;41086;46.736;15.666;2023-03-01T03:43:10;99300.00;;;0.17;100.00
55217;BME280;41086;46.736;15.666;2023-03-01T03:45:37;99293.94;;;0.13;100.00
55217;BME280;41086;46.736;15.666;2023-03-01T03:48:06;99296.56;;;0.13;100.00
55217;BME280;41086;46.736;15.666;2023-03-01T03:50:33;99291.34;;;0.13;100.00
55217;BME280;41086;46.736;15.666;2023-03-01T03:53:01;99286.94;;;0.18;100.00
55217;BME280;41086;46.736;15.666;2023-03-01T03:55:28;99290.38;;;0.20;100.00
55217;BME280;41086;46.736;15.666;2023-03-01T03:57:58;99294.69;;;0.23;100.00
55217;BME280;41086;46.736;15.666;2023-03-01T04:00:28;99293.00;;;0.22;100.00
55217;BME280;41086;46.736;15.666;2023-03-01T04:02:55;99298.22;;;0.20;100.00
55217;BME280;41086;46.736;15.666;2023-03-01T04:05:23;99293.00;;;0.20;100.00
55217;BME280;41086;46.736;15.666;2023-03-01T04:07:50;99300.78;;;0.24;100.00
55217;BME280;41086;46.736;15.666;2023-03-01T04:10:32;99297.31;;;0.23;100.00
55217;BME280;41086;46.736;15.666;2023-03-01T04:12:59;99293.03;;;0.16;100.00
55217;BME280;41086;46.736;15.666;2023-03-01T04:15:26;99306.03;;;0.19;100.00
55217;BME280;41086;46.736;15.666;2023-03-01T04:17:54;99307.84;;;0.15;100.00
55217;BME280;41086;46.736;15.666;2023-03-01T04:20:24;99312.19;;;0.16;100.00
55217;BME280;41086;46.736;15.666;2023-03-01T04:23:01;99309.63;;;0.12;100.00
55217;BME280;41086;46.736;15.666;2023-03-01T04:25:52;99307.06;;;0.09;100.00
55217;BME280;41086;46.736;15.666;2023-03-01T04:30:52;99305.41;;;0.02;100.00
55217;BME280;41086;46.736;15.666;2023-03-01T04:33:19;99301.00;;;0.07;100.00
55217;BME280;41086;46.736;15.666;2023-03-01T04:35:46;99300.97;;;0.10;100.00
55217;BME280;41086;46.736;15.666;2023-03-01T04:38:17;99292.28;;;0.09;100.00
55217;BME280;41086;46.736;15.666;2023-03-01T04:40:44;99272.44;;;-0.01;100.00
55217;BME280;41086;46.736;15.666;2023-03-01T04:43:12;99287.03;;;0.11;100.00
55217;BME280;41086;46.736;15.666;2023-03-01T04:45:42;99292.25;;;0.12;100.00
55217;BME280;41086;46.736;15.666;2023-03-01T04:48:09;99291.34;;;0.13;100.00
55217;BME280;41086;46.736;15.666;2023-03-01T04:50:36;99296.53;;;0.15;100.00
55217;BME280;41086;46.736;15.666;2023-03-01T04:53:02;99309.50;;;0.21;100.00
55217;BME280;41086;46.736;15.666;2023-03-01T04:55:29;99300.00;;;0.17;100.00
55217;BME280;41086;46.736;15.666;2023-03-01T04:57:56;99306.78;;;0.27;100.00
55217;BME280;41086;46.736;15.666;2023-03-01T05:00:23;99309.44;;;0.24;100.00
55217;BME280;41086;46.736;15.666;2023-03-01T05:02:56;99290.53;;;0.11;100.00
55217;BME280;41086;46.736;15.666;2023-03-01T05:05:28;99312.09;;;0.21;100.00
55217;BME280;41086;46.736;15.666;2023-03-01T05:07:59;99321.63;;;0.25;100.00
55217;BME280;41086;46.736;15.666;2023-03-01T05:10:28;99316.41;;;0.25;100.00
55217;BME280;41086;46.736;15.666;2023-03-01T05:12:57;99316.41;;;0.25;100.00
55217;BME280;41086;46.736;15.666;2023-03-01T05:15:25;99316.44;;;0.22;100.00
55217;BME280;41086;46.736;15.666;2023-03-01T05:17:53;99318.16;;;0.23;100.00
55217;BME280;41086;46.736;15.666;2023-03-01T05:20:21;99327.78;;;0.18;100.00
55217;BME280;41086;46.736;15.666;2023-03-01T05:22:52;99329.59;;;0.14;100.00
55217;BME280;41086;46.736;15.666;2023-03-01T05:25:21;99320.00;;;0.13;100.00
55217;BME280;41086;46.736;15.666;2023-03-01T05:27:48;99326.06;;;0.17;100.00
55217;BME280;41086;46.736;15.666;2023-03-01T05:30:15;99325.22;;;0.16;100.00
55217;BME280;41086;46.736;15.666;2023-03-01T05:32:44;99320.81;;;0.20;100.00
55217;BME280;41086;46.736;15.666;2023-03-01T05:35:13;99327.66;;;0.27;100.00
55217;BME280;41086;46.736;15.666;2023-03-01T05:37:45;99327.66;;;0.27;100.00
55217;BME280;41086;46.736;15.666;2023-03-01T05:40:14;99320.72;;;0.26;100.00
55217;BME280;41086;46.736;15.666;2023-03-01T05:42:46;99316.38;;;0.27;100.00
55217;BME280;41086;46.736;15.666;2023-03-01T05:45:14;99329.41;;;0.27;100.00
55217;BME280;41086;46.736;15.666;2023-03-01T05:47:42;99310.38;;;0.18;100.00
55217;BME280;41086;46.736;15.666;2023-03-01T05:50:18;99300.00;;;0.15;100.00
55217;BME280;41086;46.736;15.666;2023-03-01T05:52:47;99318.16;;;0.21;100.00
55217;BME280;41086;46.736;15.666;2023-03-01T05:55:17;99312.22;;;0.12;100.00
55217;BME280;41086;46.736;15.666;2023-03-01T05:57:44;99307.03;;;0.10;100.00
55217;BME280;41086;46.736;15.666;2023-03-01T06:00:13;99313.19;;;0.06;100.00
55217;BME280;41086;46.736;15.666;2023-03-01T06:02:40;99305.50;;;-0.06;100.00
55217;BME280;41086;46.736;15.666;2023-03-01T06:05:08;99319.34;;;-0.01;100.00
55217;BME280;41086;46.736;15.666;2023-03-01T06:07:35;99319.38;;;-0.04;100.00
55217;BME280;41086;46.736;15.666;2023-03-01T06:10:04;99317.63;;;-0.04;100.00
55217;BME280;41086;46.736;15.666;2023-03-01T06:12:32;99322.75;;;0.06;100.00
55217;BME280;41086;46.736;15.666;2023-03-01T06:14:59;99327.06;;;0.05;100.00
55217;BME280;41086;46.736;15.666;2023-03-01T06:17:29;99321.91;;;0.04;100.00
55217;BME280;41086;46.736;15.666;2023-03-01T06:19:56;99312.28;;;0.07;100.00
55217;BME280;41086;46.736;15.666;2023-03-01T06:22:22;99311.44;;;0.05;100.00
55217;BME280;41086;46.736;15.666;2023-03-01T06:24:49;99289.91;;;-0.08;100.00
55217;BME280;41086;46.736;15.666;2023-03-01T06:27:16;99302.00;;;-0.02;100.00
55217;BME280;41086;46.736;15.666;2023-03-01T06:29:43;99321.91;;;0.04;100.00
55217;BME280;41086;46.736;15.666;2023-03-01T06:32:09;99328.81;;;0.06;100.00
55217;BME280;41086;46.736;15.666;2023-03-01T06:34:36;99338.34;;;0.07;100.00
55217;BME280;41086;46.736;15.666;2023-03-01T06:37:03;99330.53;;;0.07;100.00
55217;BME280;41086;46.736;15.666;2023-03-01T06:39:32;99353.81;;;0.21;100.00
55217;BME280;41086;46.736;15.666;2023-03-01T06:41:58;99360.69;;;0.28;100.00
55217;BME280;41086;46.736;15.666;2023-03-01T06:44:26;99368.41;;;0.34;100.00
55217;BME280;41086;46.736;15.666;2023-03-01T06:46:53;99362.25;;;0.40;100.00
55217;BME280;41086;46.736;15.666;2023-03-01T06:49:20;99358.84;;;0.36;100.00
55217;BME280;41086;46.736;15.666;2023-03-01T06:51:47;99365.75;;;0.37;100.00
55217;BME280;41086;46.736;15.666;2023-03-01T06:54:14;99365.84;;;0.33;100.00
55217;BME280;41086;46.736;15.666;2023-03-01T06:56:40;99367.50;;;0.38;100.00
55217;BME280;41086;46.736;15.666;2023-03-01T06:59:07;99369.22;;;0.39;100.00
55217;BME280;41086;46.736;15.666;2023-03-01T07:01:34;99367.41;;;0.44;100.00
55217;BME280;41086;46.736;15.666;2023-03-01T07:04:01;99380.41;;;0.46;100.00
55217;BME280;41086;46.736;15.666;2023-03-01T07:06:28;99372.50;;;0.54;100.00
55217;BME280;41086;46.736;15.666;2023-03-01T07:08:55;99381.97;;;0.59;100.00
55217;BME280;41086;46.736;15.666;2023-03-01T07:11:22;99390.69;;;0.58;100.00
55217;BME280;41086;46.736;15.666;2023-03-01T07:13:49;99381.97;;;0.61;100.00
55217;BME280;41086;46.736;15.666;2023-03-01T07:16:16;99382.88;;;0.60;100.00
55217;BME280;41086;46.736;15.666;2023-03-01T07:18:43;99377.81;;;0.49;100.00
55217;BME280;41086;46.736;15.666;2023-03-01T07:21:13;99359.63;;;0.41;100.00
55217;BME280;41086;46.736;15.666;2023-03-01T07:23:40;99373.44;;;0.50;100.00
55217;BME280;41086;46.736;15.666;2023-03-01T07:26:07;99378.53;;;0.59;100.00
55217;BME280;41086;46.736;15.666;2023-03-01T07:28:34;99360.34;;;0.53;100.00
55217;BME280;41086;46.736;15.666;2023-03-01T07:31:02;99381.03;;;0.65;100.00
55217;BME280;41086;46.736;15.666;2023-03-01T07:33:30;99385.34;;;0.71;100.00
55217;BME280;41086;46.736;15.666;2023-03-01T07:35:58;99386.09;;;0.76;100.00
55217;BME280;41086;46.736;15.666;2023-03-01T07:38:26;99387.00;;;0.75;100.00
55217;BME280;41086;46.736;15.666;2023-03-01T07:40:56;99369.69;;;0.71;100.00
55217;BME280;41086;46.736;15.666;2023-03-01T07:43:24;99373.94;;;0.73;100.00
55217;BME280;41086;46.736;15.666;2023-03-01T07:45:50;99384.38;;;0.73;100.00
55217;BME280;41086;46.736;15.666;2023-03-01T07:48:18;99378.16;;;0.83;100.00
55217;BME280;41086;46.736;15.666;2023-03-01T07:50:44;99375.56;;;0.83;100.00
55217;BME280;41086;46.736;15.666;2023-03-01T07:53:11;99386.91;;;0.81;100.00
55217;BME280;41086;46.736;15.666;2023-03-01T07:55:38;99384.25;;;0.84;100.00
55217;BME280;41086;46.736;15.666;2023-03-01T07:58:05;99372.94;;;0.85;100.00
55217;BME280;41086;46.736;15.666;2023-03-01T08:00:32;99376.25;;;0.95;100.00
55217;BME280;41086;46.736;15.666;2023-03-01T08:02:59;99374.44;;;1.00;100.00
55217;BME280;41086;46.736;15.666;2023-03-01T08:05:28;99379.69;;;0.97;100.00
55217;BME280;41086;46.736;15.666;2023-03-01T08:07:55;99379.66;;;1.01;100.00
55217;BME280;41086;46.736;15.666;2023-03-01T08:10:22;99383.09;;;1.02;100.00
55217;BME280;41086;46.736;15.666;2023-03-01T08:12:51;99351.88;;;0.96;100.00
55217;BME280;41086;46.736;15.666;2023-03-01T08:15:18;99389.19;;;1.04;100.00
55217;BME280;41086;46.736;15.666;2023-03-01T08:17:45;99388.22;;;1.09;100.00
55217;BME280;41086;46.736;15.666;2023-03-01T08:20:12;99387.38;;;1.07;100.00
55217;BME280;41086;46.736;15.666;2023-03-01T08:22:39;99374.34;;;1.06;100.00
55217;BME280;41086;46.736;15.666;2023-03-01T08:25:06;99370.00;;;1.05;100.00
55217;BME280;41086;46.736;15.666;2023-03-01T08:27:32;99366.38;;;1.14;100.00
55217;BME280;41086;46.736;15.666;2023-03-01T08:29:59;99367.97;;;1.24;100.00
55217;BME280;41086;46.736;15.666;2023-03-01T08:32:26;99373.13;;;1.27;100.00
55217;BME280;41086;46.736;15.666;2023-03-01T08:34:53;99380.97;;;1.27;100.00
55217;BME280;41086;46.736;15.666;2023-03-01T08:37:19;99376.53;;;1.32;100.00
55217;BME280;41086;46.736;15.666;2023-03-01T08:39:46;99385.94;;;1.41;100.00
55217;BME280;41086;46.736;15.666;2023-03-01T08:42:13;99387.75;;;1.37;100.00
55217;BME280;41086;46.736;15.666;2023-03-01T08:44:40;99372.16;;;1.34;100.00
55217;BME280;41086;46.736;15.666;2023-03-01T08:47:06;99363.50;;;1.30;100.00
55217;BME280;41086;46.736;15.666;2023-03-01T08:49:33;99369.59;;;1.29;100.00
55217;BME280;41086;46.736;15.666;2023-03-01T08:52:01;99363.34;;;1.38;100.00
55217;BME280;41086;46.736;15.666;2023-03-01T08:54:28;99350.16;;;1.47;100.00
55217;BME280;41086;46.736;15.666;2023-03-01T08:56:55;99357.84;;;1.55;100.00
55217;BME280;41086;46.736;15.666;2023-03-01T08:59:22;99343.88;;;1.58;100.00
55217;BME280;41086;46.736;15.666;2023-03-01T09:01:49;99348.28;;;1.54;100.00
55217;BME280;41086;46.736;15.666;2023-03-01T09:04:16;99344.75;;;1.57;100.00
55217;BME280;41086;46.736;15.666;2023-03-01T09:06:43;99349.03;;;1.61;100.00
55217;BME280;41086;46.736;15.666;2023-03-01T09:09:17;99350.69;;;1.65;100.00
55217;BME280;41086;46.736;15.666;2023-03-01T09:11:46;99341.06;;;1.67;100.00
55217;BME280;41086;46.736;15.666;2023-03-01T09:14:13;99337.47;;;1.74;100.00
55217;BME280;41086;46.736;15.666;2023-03-01T09:16:41;99330.47;;;1.74;100.00
55217;BME280;41086;46.736;15.666;2023-03-01T09:19:08;99334.84;;;1.74;100.00
55217;BME280;41086;46.736;15.666;2023-03-01T09:21:34;99329.66;;;1.72;100.00
55217;BME280;41086;46.736;15.666;2023-03-01T09:24:12;99324.47;;;1.69;100.00
55217;BME280;41086;46.736;15.666;2023-03-01T09:26:39;99324.34;;;1.77;100.00
55217;BME280;41086;46.736;15.666;2023-03-01T09:29:06;99326.81;;;1.85;100.00
55217;BME280;41086;46.736;15.666;2023-03-01T09:31:33;99324.19;;;1.85;100.00
55217;BME280;41086;46.736;15.666;2023-03-01T09:34:00;99332.88;;;1.85;100.00
55217;BME280;41086;46.736;15.666;2023-03-01T09:36:26;99323.91;;;1.98;100.00
55217;BME280;41086;46.736;15.666;2023-03-01T09:38:53;99320.38;;;2.01;100.00
55217;BME280;41086;46.736;15.666;2023-03-01T09:41:38;99317.00;;;1.94;100.00
55217;BME280;41086;46.736;15.666;2023-03-01T09:46:45;99315.47;;;1.84;100.00
55217;BME280;41086;46.736;15.666;2023-03-01T09:49:15;99304.09;;;1.87;100.00
55217;BME280;41086;46.736;15.666;2023-03-01T09:51:54;99307.53;;;1.90;100.00
55217;BME280;41086;46.736;15.666;2023-03-01T09:54:22;99306.69;;;1.87;100.00
55217;BME280;41086;46.736;15.666;2023-03-01T09:59:45;99309.03;;;2.00;100.00
55217;BME280;41086;46.736;15.666;2023-03-01T10:08:35;99323.94;;;1.95;100.00
55217;BME280;41086;46.736;15.666;2023-03-01T10:10:47;99323.03;;;1.98;100.00
55217;BME280;41086;46.736;15.666;2023-03-01T10:13:19;99333.59;;;1.93;100.00
55217;BME280;41086;46.736;15.666;2023-03-01T10:15:55;99339.63;;;1.97;100.00
55217;BME280;41086;46.736;15.666;2023-03-01T10:18:27;99335.38;;;1.91;100.00
55217;BME280;41086;46.736;15.666;2023-03-01T10:21:02;99330.22;;;1.87;100.00
55217;BME280;41086;46.736;15.666;2023-03-01T10:23:34;99335.44;;;1.88;100.00
55217;BME280;41086;46.736;15.666;2023-03-01T10:26:23;99347.72;;;1.85;100.00
55217;BME280;41086;46.736;15.666;2023-03-01T10:29:11;99351.19;;;1.85;100.00
55217;BME280;41086;46.736;15.666;2023-03-01T10:34:17;99359.03;;;1.85;100.00
55217;BME280;41086;46.736;15.666;2023-03-01T10:36:49;99355.50;;;1.88;100.00
55217;BME280;41086;46.736;15.666;2023-03-01T10:39:24;99348.50;;;1.88;100.00
55217;BME280;41086;46.736;15.666;2023-03-01T10:47:08;99334.47;;;1.92;100.00
55217;BME280;41086;46.736;15.666;2023-03-01T10:49:39;99333.63;;;1.92;100.00
55217;BME280;41086;46.736;15.666;2023-03-01T10:52:19;99331.69;;;2.02;100.00
55217;BME280;41086;46.736;15.666;2023-03-01T10:54:59;99330.78;;;2.04;100.00
55217;BME280;41086;46.736;15.666;2023-03-01T11:00:22;99322.78;;;2.12;100.00
55217;BME280;41086;46.736;15.666;2023-03-01T11:03:04;99330.63;;;2.10;100.00
55217;BME280;41086;46.736;15.666;2023-03-01T11:05:36;99305.63;;;1.97;100.00
55217;BME280;41086;46.736;15.666;2023-03-01T11:08:03;99303.28;;;1.83;100.00
55217;BME280;41086;46.736;15.666;2023-03-01T11:10:32;99316.28;;;1.88;100.00
55217;BME280;41086;46.736;15.666;2023-03-01T11:13:11;99314.19;;;2.05;100.00
55217;BME280;41086;46.736;15.666;2023-03-01T11:15:41;99288.22;;;1.96;100.00
55217;BME280;41086;46.736;15.666;2023-03-01T11:18:22;99317.72;;;2.03;100.00
55217;BME280;41086;46.736;15.666;2023-03-01T11:21:07;99321.44;;;1.91;100.00
55217;BME280;41086;46.736;15.666;2023-03-01T11:23:37;99306.56;;;1.94;100.00
55217;BME280;41086;46.736;15.666;2023-03-01T11:26:08;99290.94;;;1.90;100.00
55217;BME280;41086;46.736;15.666;2023-03-01T11:28:40;99287.31;;;1.98;100.00
55217;BME280;41086;46.736;15.666;2023-03-01T11:31:11;99292.53;;;1.98;100.00
55217;BME280;41086;46.736;15.666;2023-03-01T11:33:55;99292.25;;;2.11;100.00
55217;BME280;41086;46.736;15.666;2023-03-01T11:36:47;99278.66;;;1.95;100.00
55217;BME280;41086;46.736;15.666;2023-03-01T11:39:27;99274.25;;;1.97;100.00
55217;BME280;41086;46.736;15.666;2023-03-01T11:42:19;99283.94;;;1.92;100.00
55217;BME280;41086;46.736;15.666;2023-03-01T11:44:49;99265.56;;;1.96;100.00
55217;BME280;41086;46.736;15.666;2023-03-01T11:47:47;99266.50;;;1.92;100.00
55217;BME280;41086;46.736;15.666;2023-03-01T11:50:27;99253.31;;;1.98;100.00
55217;BME280;41086;46.736;15.666;2023-03-01T11:56:34;99245.00;;;2.20;100.00
55217;BME280;41086;46.736;15.666;2023-03-01T12:07:22;99236.44;;;2.51;100.00
55217;BME280;41086;46.736;15.666;2023-03-01T12:19:37;99218.72;;;2.62;100.00
55217;BME280;41086;46.736;15.666;2023-03-01T12:29:47;99207.66;;;2.51;100.00
55217;BME280;41086;46.736;15.666;2023-03-01T12:32:30;99197.75;;;2.63;100.00
55217;BME280;41086;46.736;15.666;2023-03-01T12:35:26;99187.88;;;2.75;100.00
55217;BME280;41086;46.736;15.666;2023-03-01T12:51:19;99182.22;;;2.90;100.00
55217;BME280;41086;46.736;15.666;2023-03-01T12:53:48;99179.19;;;2.73;100.00
55217;BME280;41086;46.736;15.666;2023-03-01T12:56:19;99176.41;;;2.79;100.00
55217;BME280;41086;46.736;15.666;2023-03-01T13:12:02;99161.75;;;2.37;100.00
55217;BME280;41086;46.736;15.666;2023-03-01T13:14:36;99138.22;;;2.37;100.00
55217;BME280;41086;46.736;15.666;2023-03-01T13:17:03;99138.09;;;2.42;100.00
55217;BME280;41086;46.736;15.666;2023-03-01T13:19:30;99132.06;;;2.38;100.00
55217;BME280;41086;46.736;15.666;2023-03-01T13:21:59;99127.00;;;2.32;100.00
55217;BME280;41086;46.736;15.666;2023-03-01T13:24:37;99138.13;;;2.40;100.00
55217;BME280;41086;46.736;15.666;2023-03-01T13:27:09;99139.72;;;2.48;100.00
55217;BME280;41086;46.736;15.666;2023-03-01T13:29:49;99142.06;;;2.57;100.00
55217;BME280;41086;46.736;15.666;2023-03-01T13:32:27;99131.78;;;2.51;100.00
55217;BME280;41086;46.736;15.666;2023-03-01T13:37:42;99115.56;;;2.36;100.00
55217;BME280;41086;46.736;15.666;2023-03-01T13:42:55;99124.94;;;2.45;100.00
55217;BME280;41086;46.736;15.666;2023-03-01T13:45:42;99124.94;;;2.45;100.00
55217;BME280;41086;46.736;15.666;2023-03-01T13:48:24;99129.25;;;2.48;100.00
55217;BME280;41086;46.736;15.666;2023-03-01T13:50:59;99124.88;;;2.48;100.00
55217;BME280;41086;46.736;15.666;2023-03-01T13:53:30;99119.53;;;2.53;100.00
55217;BME280;41086;46.736;15.666;2023-03-01T13:56:09;99118.59;;;2.54;100.00
55217;BME280;41086;46.736;15.666;2023-03-01T13:59:12;99109.06;;;2.53;100.00
55217;BME280;41086;46.736;15.666;2023-03-01T14:01:32;99098.78;;;2.45;100.00
55217;BME280;41086;46.736;15.666;2023-03-01T14:04:16;99104.75;;;2.50;100.00
55217;BME280;41086;46.736;15.666;2023-03-01T14:06:44;99106.50;;;2.50;100.00
55217;BME280;41086;46.736;15.666;2023-03-01T14:09:26;99094.59;;;2.38;100.00
55217;BME280;41086;46.736;15.666;2023-03-01T14:12:25;99093.72;;;2.39;100.00
55217;BME280;41086;46.736;15.666;2023-03-01T14:15:06;99072.94;;;2.33;100.00
55217;BME280;41086;46.736;15.666;2023-03-01T14:17:55;99087.50;;;2.41;100.00
55217;BME280;41086;46.736;15.666;2023-03-01T14:20:31;99079.56;;;2.46;100.00
55217;BME280;41086;46.736;15.666;2023-03-01T14:23:01;99083.91;;;2.47;100.00
55217;BME280;41086;46.736;15.666;2023-03-01T14:25:32;99081.97;;;2.54;100.00
55217;BME280;41086;46.736;15.666;2023-03-01T14:28:46;99081.13;;;2.53;100.00
55217;BME280;41086;46.736;15.666;2023-03-01T14:30:52;99067.13;;;2.54;100.00
55217;BME280;41086;46.736;15.666;2023-03-01T14:33:24;99068.13;;;2.50;100.00
55217;BME280;41086;46.736;15.666;2023-03-01T14:38:35;99060.84;;;2.61;100.00
55217;BME280;41086;46.736;15.666;2023-03-01T14:41:25;99058.25;;;2.60;100.00
55217;BME280;41086;46.736;15.666;2023-03-01T14:43:57;99069.53;;;2.62;100.00
55217;BME280;41086;46.736;15.666;2023-03-01T14:46:30;99057.38;;;2.61;100.00
55217;BME280;41086;46.736;15.666;2023-03-01T14:49:02;99065.16;;;2.62;100.00
55217;BME280;41086;46.736;15.666;2023-03-01T14:51:29;99059.06;;;2.62;100.00
55217;BME280;41086;46.736;15.666;2023-03-01T14:53:56;99060.84;;;2.61;100.00
55217;BME280;41086;46.736;15.666;2023-03-01T14:56:23;99057.38;;;2.61;100.00
55217;BME280;41086;46.736;15.666;2023-03-01T14:58:52;99054.75;;;2.61;100.00
55217;BME280;41086;46.736;15.666;2023-03-01T15:01:19;99057.28;;;2.64;100.00
55217;BME280;41086;46.736;15.666;2023-03-01T15:03:48;99054.75;;;2.61;100.00
55217;BME280;41086;46.736;15.666;2023-03-01T15:06:20;99052.16;;;2.59;100.00
55217;BME280;41086;46.736;15.666;2023-03-01T15:08:51;99050.41;;;2.60;100.00
55217;BME280;41086;46.736;15.666;2023-03-01T15:11:31;99045.25;;;2.57;100.00
55217;BME280;41086;46.736;15.666;2023-03-01T15:13:58;99039.13;;;2.58;100.00
55217;BME280;41086;46.736;15.666;2023-03-01T15:16:27;99046.91;;;2.61;100.00
55217;BME280;41086;46.736;15.666;2023-03-01T15:18:58;99039.13;;;2.58;100.00
55217;BME280;41086;46.736;15.666;2023-03-01T15:24:17;99033.16;;;2.53;100.00
55217;BME280;41086;46.736;15.666;2023-03-01T15:26:57;99031.44;;;2.52;100.00
55217;BME280;41086;46.736;15.666;2023-03-01T15:29:29;99034.13;;;2.50;100.00
55217;BME280;41086;46.736;15.666;2023-03-01T15:32:02;99030.59;;;2.51;100.00
55217;BME280;41086;46.736;15.666;2023-03-01T15:34:34;99035.06;;;2.48;100.00